KGAD

Northeast Alabama Regional Airport

Gadsden, Alabama, USA
METAR KGAD 231356Z AUTO 00000KT 9SM CLR 18/17 A3038 RMK AO2 SLP289 T01780172
Observed Flight Rules
Feb-23 @ 13:56 UTC (38 minutes ago) Visual Flight Rules
Wind Visibility Clouds
Calm 9 miles
  • Clear skies
Temperatures Readings
Current 18°C / 64°F
Dewpoint 17°C / 63°F
Humidity 94%
Altimeter 30.38" Hg
Pressure 1028.9 hPa
Elevation 173
METAR KGAD 231356Z AUTO 00000KT 9SM CLR 18/17 A3038 RMK AO2 SLP289 T01780172
Observed Flight Rules
Feb-23 @ 13:56 UTC
(38 minutes ago)
VFR
Wind Visibility
Calm 9 miles
Clouds
  • Clear skies
Temperature Dewpoint
18°C / 64°F 17°C / 63°F
Humidity Altimeter Pressure
94% 30.38" Hg 1028.9 hPa